Time;durP1;ratioP1;P1;durP2;ratioP2;P2;SDS_P1;SDS_P2;PMS_P1;PMS_P2;Temp;Humidity;BMP_temperature;BMP_pressure;BME280_temperature;BME280_humidity;BME280_pressure;Samples;Min_cycle;Max_cycle;Signal;HPM_P1;HPM_P2
2022/02/09 00:06:49;;;;;;;;;;;;;;;;;;5096627;28;20061;-73
2022/02/09 00:09:11;;;;;;;;;;;;;;;;;;5094434;28;20011;-73
2022/02/09 00:19:32;;;;;;;;;;;;;;;;;;5096443;28;19920;-73
2022/02/09 00:22:16;;;;;;;;;;;;;;;;;;5094896;28;19973;-73
2022/02/09 00:30:20;;;;;;;;;;;;;;;;;;5096268;28;20015;-73
2022/02/09 00:44:18;;;;;;;;;;;;;;;;;;5096073;28;19916;-72
2022/02/09 01:56:22;;;;;;;;;;;;;;;;;;5094175;28;21353;-73
2022/02/09 01:58:48;;;;;;;;;;;;;;;;;;5094604;28;19916;-73
2022/02/09 02:01:13;;;;;;;;;;;;;;;;;;5094395;28;19939;-73
2022/02/09 02:03:39;;;;;;;;;;;;;;;;;;5093739;28;20031;-73
2022/02/09 02:06:04;;;;;;;;;;;;;;;;;;5094305;28;19915;-73
2022/02/09 02:08:31;;;;;;;;;;;;;;;;;;5094390;28;19916;-73
2022/02/09 02:18:48;;;;;;;;;;;;;;;;;;5094339;28;19969;-73
2022/02/09 02:37:16;;;;;;;;;;;;;;;;;;5094248;28;19923;-73
2022/02/09 02:40:03;;;;;;;;;;;;;;;;;;5092966;28;19916;-73
2022/02/09 02:59:19;;;;;;;;;;;;;;;;;;5093606;28;19916;-73
2022/02/09 03:14:58;;;;;;;;;;;;;;;;;;5093724;28;20369;-74
2022/02/09 03:17:19;;;;;;;;;;;;;;;;;;5093191;28;19922;-73
2022/02/09 03:20:06;;;;;;;;;;;;;;;;;;5092901;28;19977;-73
2022/02/09 03:22:51;;;;;;;;;;;;;;;;;;5094997;28;19931;-74
2022/02/09 03:55:26;;;;;;;;;;;;;;;;;;5097175;28;20362;-75
2022/02/09 03:57:52;;;;;;;;;;;;;;;;;;5095545;28;19916;-73
2022/02/09 04:00:22;;;;;;;;;;;;;;;;;;5097018;28;19935;-73
2022/02/09 04:02:48;;;;;;;;;;;;;;;;;;5096514;28;20273;-73
2022/02/09 04:05:15;;;;;;;;;;;;;;;;;;5096688;28;19922;-73
2022/02/09 04:07:41;;;;;;;;;;;;;;;;;;5096938;28;19969;-73
2022/02/09 04:10:09;;;;;;;;;;;;;;;;;;5096492;28;19920;-73
2022/02/09 04:12:47;;;;;;;;;;;;;;;;;;5096565;28;19923;-73
2022/02/09 04:15:24;;;;;;;;;;;;;;;;;;5094575;28;19961;-73
2022/02/09 04:18:12;;;;;;;;;;;;;;;;;;5095116;28;20061;-73
2022/02/09 04:37:12;;;;;;;;;;;;;;;;;;5096077;28;20003;-73
2022/02/09 04:39:56;;;;;;;;;;;;;;;;;;5095016;28;19970;-73
2022/02/09 04:50:27;;;;;;;;;;;;;;;;;;5095486;28;19927;-73
2022/02/09 04:53:15;;;;;;;;;;;;;;;;;;5095962;28;19939;-73
2022/02/09 04:58:15;;;;;;;;;;;;;;;;;;5095733;28;19923;-73
2022/02/09 05:01:33;;;;;;;;;;;;;;;;;;5095767;28;19923;-73
2022/02/09 05:03:47;;;;;;;;;;;;;;;;;;5088436;28;19916;-73
2022/02/09 05:25:40;;;;;;;;;;;;;;;;;;5095178;28;19981;-72
2022/02/09 05:28:14;;;;;;;;;;;;;;;;;;5094061;28;19916;-72
2022/02/09 05:30:43;;;;;;;;;;;;;;;;;;5093896;28;20018;-72
2022/02/09 05:33:08;;;;;;;;;;;;;;;;;;5095064;28;20006;-72
2022/02/09 05:35:33;;;;;;;;;;;;;;;;;;5094954;28;19951;-72
2022/02/09 05:37:59;;;;;;;;;;;;;;;;;;5094837;28;20380;-72
2022/02/09 05:40:25;;;;;;;;;;;;;;;;;;5094851;28;20290;-72
2022/02/09 05:42:51;;;;;;;;;;;;;;;;;;5094696;28;19922;-72
2022/02/09 05:45:17;;;;;;;;;;;;;;;;;;5092774;28;19920;-72
2022/02/09 05:50:38;;;;;;;;;;;;;;;;;;5094013;28;19921;-72
2022/02/09 05:58:08;;;;;;;;;;;;;;;;;;5074254;28;20015;-73
2022/02/09 06:00:34;;;;;;;;;;;;;;;;;;5074234;28;19917;-72
2022/02/09 06:03:01;;;;;;;;;;;;;;;;;;5074349;28;19923;-72
2022/02/09 06:05:26;;;;;;;;;;;;;;;;;;5072972;28;20386;-73
2022/02/09 06:07:51;;;;;;;;;;;;;;;;;;5074324;28;19959;-72
2022/02/09 06:10:20;;;;;;;;;;;;;;;;;;5073749;28;20306;-72
2022/02/09 06:13:06;;;;;;;;;;;;;;;;;;5072972;28;19950;-73
2022/02/09 06:20:47;;;;;;;;;;;;;;;;;;5094237;28;19923;-73
2022/02/09 06:23:12;;;;;;;;;;;;;;;;;;5093943;28;19923;-72
2022/02/09 06:25:38;;;;;;;;;;;;;;;;;;5094210;28;20308;-72
2022/02/09 06:28:03;;;;;;;;;;;;;;;;;;5092932;28;20461;-73
2022/02/09 06:30:28;;;;;;;;;;;;;;;;;;5094262;28;19916;-72
2022/02/09 06:32:54;;;;;;;;;;;;;;;;;;5093882;28;20259;-72
2022/02/09 06:35:19;;;;;;;;;;;;;;;;;;5094141;28;19923;-72
2022/02/09 06:37:46;;;;;;;;;;;;;;;;;;5093318;28;20015;-72
2022/02/09 06:40:15;;;;;;;;;;;;;;;;;;5093710;28;19916;-72
2022/02/09 06:42:41;;;;;;;;;;;;;;;;;;5093966;28;19922;-72
2022/02/09 06:45:19;;;;;;;;;;;;;;;;;;5094077;28;20028;-72
2022/02/09 06:47:44;;;;;;;;;;;;;;;;;;5093025;28;19969;-72
2022/02/09 06:52:58;;;;;;;;;;;;;;;;;;5093805;28;19916;-72
2022/02/09 06:55:24;;;;;;;;;;;;;;;;;;5092502;28;19916;-72
2022/02/09 07:00:15;;;;;;;;;;;;;;;;;;5100577;28;19920;-72
2022/02/09 07:02:41;;;;;;;;;;;;;;;;;;5100599;28;19973;-72
2022/02/09 07:05:10;;;;;;;;;;;;;;;;;;5100229;28;20366;-72
2022/02/09 07:07:35;;;;;;;;;;;;;;;;;;5100412;28;19931;-72
2022/02/09 07:10:01;;;;;;;;;;;;;;;;;;5100630;28;20283;-72
2022/02/09 07:12:27;;;;;;;;;;;;;;;;;;5099431;28;20005;-72
2022/02/09 07:14:53;;;;;;;;;;;;;;;;;;5100433;28;19963;-73
2022/02/09 07:17:19;;;;;;;;;;;;;;;;;;5100551;28;19916;-74
2022/02/09 07:19:52;;;;;;;;;;;;;;;;;;5100320;28;19923;-73
2022/02/09 07:22:23;;;;;;;;;;;;;;;;;;5100832;28;20015;-73
2022/02/09 07:24:49;;;;;;;;;;;;;;;;;;5100367;28;19920;-74
2022/02/09 07:27:27;;;;;;;;;;;;;;;;;;5100195;28;19916;-73
2022/02/09 07:29:52;;;;;;;;;;;;;;;;;;5100280;28;19916;-74
2022/02/09 07:32:18;;;;;;;;;;;;;;;;;;5099301;28;20364;-73
2022/02/09 07:34:43;;;;;;;;;;;;;;;;;;5100370;28;19916;-73
2022/02/09 07:37:08;;;;;;;;;;;;;;;;;;5099168;28;19951;-73
2022/02/09 07:39:35;;;;;;;;;;;;;;;;;;5100242;28;19916;-73
2022/02/09 07:42:08;;;;;;;;;;;;;;;;;;5099019;28;19950;-73
2022/02/09 07:44:47;;;;;;;;;;;;;;;;;;5100246;28;19920;-74
2022/02/09 07:52:54;;;;;;;;;;;;;;;;;;5100107;28;20491;-73
2022/02/09 07:55:19;;;;;;;;;;;;;;;;;;5100188;28;19916;-73
2022/02/09 07:57:45;;;;;;;;;;;;;;;;;;5098651;28;20003;-73
2022/02/09 08:00:13;;;;;;;;;;;;;;;;;;5098212;28;19916;-75
2022/02/09 08:02:41;;;;;;;;;;;;;;;;;;5099868;28;19916;-76
2022/02/09 08:05:07;;;;;;;;;;;;;;;;;;5098838;28;20254;-76
2022/02/09 08:07:32;;;;;;;;;;;;;;;;;;5097648;28;20348;-76
2022/02/09 08:09:59;;;;;;;;;;;;;;;;;;5095215;28;19920;-76
2022/02/09 08:20:28;;;;;;;;;;;;;;;;;;5097076;28;19920;-76
2022/02/09 08:28:07;;;;;;;;;;;;;;;;;;5096536;28;19927;-77
2022/02/09 08:33:08;;;;;;;;;;;;;;;;;;5096052;28;19916;-76
2022/02/09 08:35:34;;;;;;;;;;;;;;;;;;5096034;28;19995;-75
2022/02/09 08:38:00;;;;;;;;;;;;;;;;;;5096142;28;20395;-77
2022/02/09 08:40:26;;;;;;;;;;;;;;;;;;5096439;28;20045;-74
2022/02/09 08:42:51;;;;;;;;;;;;;;;;;;5096038;28;19962;-76
2022/02/09 08:45:16;;;;;;;;;;;;;;;;;;5094636;28;20277;-75
2022/02/09 08:47:42;;;;;;;;;;;;;;;;;;5094970;28;19916;-78
2022/02/09 08:50:08;;;;;;;;;;;;;;;;;;5095331;28;19969;-76
2022/02/09 08:52:33;;;;;;;;;;;;;;;;;;5095757;28;20406;-76
2022/02/09 08:54:58;;;;;;;;;;;;;;;;;;5095936;28;19920;-76
2022/02/09 08:57:25;;;;;;;;;;;;;;;;;;5095767;28;19923;-76
2022/02/09 08:59:52;;;;;;;;;;;;;;;;;;5094927;28;19969;-75
2022/02/09 09:02:20;;;;;;;;;;;;;;;;;;5094616;28;19922;-76
2022/02/09 09:04:55;;;;;;;;;;;;;;;;;;5095859;28;19943;-76
2022/02/09 09:07:29;;;;;;;;;;;;;;;;;;5094429;28;19924;-76
2022/02/09 09:10:05;;;;;;;;;;;;;;;;;;5094339;28;20325;-75
2022/02/09 10:01:49;;;;;;;;;;;;;;;;;;5074684;28;20427;-77
2022/02/09 10:04:37;;;;;;;;;;;;;;;;;;5090712;28;19921;-76
2022/02/09 10:32:47;;;;;;;;;;;;;;;;;;5092676;28;19923;-74
2022/02/09 10:35:08;;;;;;;;;;;;;;;;;;5093017;28;19916;-76
2022/02/09 10:37:33;;;;;;;;;;;;;;;;;;5094013;28;19920;-76
2022/02/09 10:40:02;;;;;;;;;;;;;;;;;;5092787;28;19916;-76
2022/02/09 10:42:47;;;;;;;;;;;;;;;;;;5094176;28;20281;-76
2022/02/09 10:45:48;;;;;;;;;;;;;;;;;;5093797;28;19967;-76
2022/02/09 10:48:36;;;;;;;;;;;;;;;;;;5082704;28;19925;-76
2022/02/09 10:51:29;;;;;;;;;;;;;;;;;;5093927;28;19920;-76
2022/02/09 10:54:11;;;;;;;;;;;;;;;;;;5094059;28;19916;-76
2022/02/09 10:56:38;;;;;;;;;;;;;;;;;;5093819;28;19916;-76
2022/02/09 10:59:06;;;;;;;;;;;;;;;;;;5093797;28;19978;-76
2022/02/09 11:01:33;;;;;;;;;;;;;;;;;;5093752;28;19982;-76
2022/02/09 11:03:58;;;;;;;;;;;;;;;;;;5092788;28;19935;-76
2022/02/09 11:06:43;;;;;;;;;;;;;;;;;;5093841;28;19916;-76
2022/02/09 11:09:10;;;;;;;;;;;;;;;;;;5093875;28;20404;-77
2022/02/09 11:11:37;;;;;;;;;;;;;;;;;;5093819;28;20404;-76
2022/02/09 11:14:03;;;;;;;;;;;;;;;;;;5092470;28;19966;-76
2022/02/09 11:16:30;;;;;;;;;;;;;;;;;;5093740;28;19967;-76
2022/02/09 11:18:57;;;;;;;;;;;;;;;;;;5094194;28;19912;-77
2022/02/09 11:21:26;;;;;;;;;;;;;;;;;;5091956;28;19922;-76
2022/02/09 11:23:58;;;;;;;;;;;;;;;;;;5098098;28;19916;-76
2022/02/09 11:26:58;;;;;;;;;;;;;;;;;;5114044;28;19916;-76
2022/02/09 11:34:48;;;;;;;;;;;;;;;;;;5108856;28;19958;-76
2022/02/09 11:37:14;;;;;;;;;;;;;;;;;;5092793;28;19916;-76
2022/02/09 11:39:48;;;;;;;;;;;;;;;;;;5093212;28;19922;-76
2022/02/09 11:42:23;;;;;;;;;;;;;;;;;;5093582;28;19955;-76
2022/02/09 11:49:04;;;;;;;;;;;;;;;;;;5097118;28;19924;-76
2022/02/09 12:01:38;;;;;;;;;;;;;;;;;;5095830;28;20285;-76
2022/02/09 12:12:11;;;;;;;;;;;;;;;;;;5096787;28;20281;-77
2022/02/09 12:14:52;;;;;;;;;;;;;;;;;;5096591;28;19916;-76
2022/02/09 12:17:35;;;;;;;;;;;;;;;;;;5095509;28;19919;-76
2022/02/09 12:20:08;;;;;;;;;;;;;;;;;;5095254;28;19981;-77
2022/02/09 12:22:46;;;;;;;;;;;;;;;;;;5096563;28;19955;-76
2022/02/09 12:25:11;;;;;;;;;;;;;;;;;;5096371;28;19966;-76
2022/02/09 12:27:37;;;;;;;;;;;;;;;;;;5096440;28;19959;-76
2022/02/09 12:30:10;;;;;;;;;;;;;;;;;;5094885;28;20434;-76
2022/02/09 12:32:36;;;;;;;;;;;;;;;;;;5095126;28;19916;-76
2022/02/09 12:35:05;;;;;;;;;;;;;;;;;;5095095;28;19916;-76
2022/02/09 12:37:38;;;;;;;;;;;;;;;;;;5096059;28;19916;-76
2022/02/09 12:40:08;;;;;;;;;;;;;;;;;;5094763;28;20391;-76
2022/02/09 12:42:37;;;;;;;;;;;;;;;;;;5095951;28;19916;-76
2022/02/09 12:45:07;;;;;;;;;;;;;;;;;;5095152;28;19927;-76
2022/02/09 12:47:34;;;;;;;;;;;;;;;;;;5096156;28;19916;-77
2022/02/09 12:50:01;;;;;;;;;;;;;;;;;;5095484;28;20354;-76
2022/02/09 12:52:29;;;;;;;;;;;;;;;;;;5096006;28;19920;-76
2022/02/09 12:55:07;;;;;;;;;;;;;;;;;;5096248;28;19953;-76
2022/02/09 12:57:33;;;;;;;;;;;;;;;;;;5095952;28;19916;-78
2022/02/09 12:59:58;;;;;;;;;;;;;;;;;;5095031;28;19981;-78
2022/02/09 13:02:23;;;;;;;;;;;;;;;;;;5095006;28;19920;-77
2022/02/09 13:05:00;;;;;;;;;;;;;;;;;;5098331;28;19920;-78
2022/02/09 13:07:25;;;;;;;;;;;;;;;;;;5100676;28;19969;-78
2022/02/09 13:09:53;;;;;;;;;;;;;;;;;;5100779;28;19916;-78
2022/02/09 13:12:25;;;;;;;;;;;;;;;;;;5100131;28;19920;-78
2022/02/09 13:14:51;;;;;;;;;;;;;;;;;;5101085;28;19916;-78
2022/02/09 13:20:25;;;;;;;;;;;;;;;;;;5101440;28;19916;-78
2022/02/09 14:07:52;;;;;;;;;;;;;;;;;;5101556;28;19923;-78
2022/02/09 14:13:07;;;;;;;;;;;;;;;;;;5101719;28;19920;-77
2022/02/09 14:56:16;;;;;;;;;;;;;;;;;;5075196;28;20697;-77
2022/02/09 14:58:45;;;;;;;;;;;;;;;;;;5092424;28;19959;-77
2022/02/09 15:01:31;;;;;;;;;;;;;;;;;;5093856;28;20304;-77
2022/02/09 15:09:49;;;;;;;;;;;;;;;;;;5093602;28;20354;-77
2022/02/09 15:15:02;;;;;;;;;;;;;;;;;;5075201;28;19916;-77
2022/02/09 15:22:40;;;;;;;;;;;;;;;;;;5076216;28;20266;-78
2022/02/09 15:25:14;;;;;;;;;;;;;;;;;;5077399;28;19927;-78
2022/02/09 15:27:40;;;;;;;;;;;;;;;;;;5077479;28;19960;-77
2022/02/09 15:30:06;;;;;;;;;;;;;;;;;;5077431;28;20385;-77
2022/02/09 15:32:36;;;;;;;;;;;;;;;;;;5076152;28;19943;-77
2022/02/09 15:35:10;;;;;;;;;;;;;;;;;;5059435;28;19924;-77
2022/02/09 15:38:13;;;;;;;;;;;;;;;;;;5076029;28;19943;-78
2022/02/09 15:40:36;;;;;;;;;;;;;;;;;;5091609;28;19916;-78
2022/02/09 16:22:27;;;;;;;;;;;;;;;;;;5095359;28;19962;-78
2022/02/09 16:46:24;;;;;;;;;;;;;;;;;;5078465;28;19966;-76
2022/02/09 16:48:58;;;;;;;;;;;;;;;;;;5078923;28;19920;-79
2022/02/09 16:51:25;;;;;;;;;;;;;;;;;;5075618;28;19916;-76
2022/02/09 17:18:48;;;;;;;;;;;;;;;;;;5102035;28;19922;-79
2022/02/09 17:21:14;;;;;;;;;;;;;;;;;;5104544;28;20004;-78
2022/02/09 17:23:40;;;;;;;;;;;;;;;;;;5106661;28;19920;-77
2022/02/09 17:26:05;;;;;;;;;;;;;;;;;;5105256;28;19924;-78
2022/02/09 17:28:31;;;;;;;;;;;;;;;;;;5105507;28;19922;-79
2022/02/09 17:36:49;;;;;;;;;;;;;;;;;;5098112;28;20440;-78
2022/02/09 17:57:52;;;;;;;;;;;;;;;;;;5095877;28;19994;-77
2022/02/09 18:00:17;;;;;;;;;;;;;;;;;;5094016;28;20015;-78
2022/02/09 18:02:49;;;;;;;;;;;;;;;;;;5101405;28;19947;-79
2022/02/09 18:05:25;;;;;;;;;;;;;;;;;;5104108;28;19920;-79
2022/02/09 18:07:56;;;;;;;;;;;;;;;;;;5099927;28;19916;-78
2022/02/09 18:10:30;;;;;;;;;;;;;;;;;;5101496;28;19916;-79
2022/02/09 18:15:50;;;;;;;;;;;;;;;;;;5102414;28;20369;-79
2022/02/09 18:34:19;;;;;;;;;;;;;;;;;;5094224;28;19923;-77
2022/02/09 18:47:40;;;;;;;;;;;;;;;;;;5091841;28;19969;-77
2022/02/09 19:05:54;;;;;;;;;;;;;;;;;;5092257;28;20010;-76
2022/02/09 19:08:49;;;;;;;;;;;;;;;;;;5093397;28;20504;-77
2022/02/09 19:16:54;;;;;;;;;;;;;;;;;;5093286;28;19928;-77
2022/02/09 19:28:20;;;;;;;;;;;;;;;;;;5093758;28;19923;-77
2022/02/09 19:46:46;;;;;;;;;;;;;;;;;;5080769;28;19970;-77
2022/02/09 19:57:05;;;;;;;;;;;;;;;;;;5081380;28;19916;-77
2022/02/09 19:59:32;;;;;;;;;;;;;;;;;;5073221;28;19961;-77
2022/02/09 20:01:58;;;;;;;;;;;;;;;;;;5082876;28;19916;-77
2022/02/09 20:04:24;;;;;;;;;;;;;;;;;;5084803;28;19917;-77
2022/02/09 20:06:49;;;;;;;;;;;;;;;;;;5086149;28;20274;-77
2022/02/09 20:09:15;;;;;;;;;;;;;;;;;;5085794;28;19916;-77
2022/02/09 20:11:42;;;;;;;;;;;;;;;;;;5087433;28;19916;-77
2022/02/09 20:14:09;;;;;;;;;;;;;;;;;;5085815;28;19917;-76
2022/02/09 20:16:34;;;;;;;;;;;;;;;;;;5088451;28;19916;-79
2022/02/09 20:18:59;;;;;;;;;;;;;;;;;;5091160;28;20431;-79
2022/02/09 20:21:27;;;;;;;;;;;;;;;;;;5087804;28;19916;-78
2022/02/09 20:23:53;;;;;;;;;;;;;;;;;;5089699;28;19920;-78
2022/02/09 20:26:19;;;;;;;;;;;;;;;;;;5088931;28;19970;-78
2022/02/09 20:28:56;;;;;;;;;;;;;;;;;;5085481;28;19923;-78
2022/02/09 20:31:27;;;;;;;;;;;;;;;;;;5077656;28;19917;-78
2022/02/09 20:33:58;;;;;;;;;;;;;;;;;;5092586;28;19916;-78
2022/02/09 20:36:24;;;;;;;;;;;;;;;;;;5097481;28;20285;-77
2022/02/09 20:38:54;;;;;;;;;;;;;;;;;;5087850;28;19971;-77
2022/02/09 20:41:21;;;;;;;;;;;;;;;;;;5088818;28;20327;-77
2022/02/09 20:44:07;;;;;;;;;;;;;;;;;;5086759;28;19916;-77
2022/02/09 20:46:34;;;;;;;;;;;;;;;;;;5087058;28;19920;-77
2022/02/09 20:49:03;;;;;;;;;;;;;;;;;;5087532;28;19920;-77
2022/02/09 20:51:29;;;;;;;;;;;;;;;;;;5070231;28;20404;-77
2022/02/09 20:53:54;;;;;;;;;;;;;;;;;;5086255;28;19916;-77
2022/02/09 20:56:20;;;;;;;;;;;;;;;;;;5088166;28;19923;-77
2022/02/09 20:58:47;;;;;;;;;;;;;;;;;;5072354;28;19920;-77
2022/02/09 21:01:17;;;;;;;;;;;;;;;;;;5099208;28;19963;-77
2022/02/09 21:03:50;;;;;;;;;;;;;;;;;;5098079;28;19924;-77
2022/02/09 21:06:34;;;;;;;;;;;;;;;;;;5095678;28;20006;-78
2022/02/09 21:09:26;;;;;;;;;;;;;;;;;;5080360;28;19920;-77
2022/02/09 21:17:07;;;;;;;;;;;;;;;;;;5095584;28;19916;-77
2022/02/09 21:22:17;;;;;;;;;;;;;;;;;;5095588;28;20286;-77
2022/02/09 21:29:08;;;;;;;;;;;;;;;;;;5095359;28;19916;-76
2022/02/09 21:33:23;;;;;;;;;;;;;;;;;;5095258;28;19920;-77
2022/02/09 22:19:19;;;;;;;;;;;;;;;;;;5094473;28;19916;-77
2022/02/09 22:22:02;;;;;;;;;;;;;;;;;;5093984;28;19916;-76
2022/02/09 22:27:27;;;;;;;;;;;;;;;;;;5093490;28;20259;-77
2022/02/09 22:45:33;;;;;;;;;;;;;;;;;;5094003;28;19920;-77
2022/02/09 22:54:26;;;;;;;;;;;;;;;;;;5094278;28;19920;-76
2022/02/09 22:56:28;;;;;;;;;;;;;;;;;;5093911;28;20007;-77
2022/02/09 22:58:54;;;;;;;;;;;;;;;;;;5094067;28;20394;-76
2022/02/09 23:01:34;;;;;;;;;;;;;;;;;;5093442;28;19920;-76
2022/02/09 23:06:54;;;;;;;;;;;;;;;;;;5093785;28;19927;-76
2022/02/09 23:09:42;;;;;;;;;;;;;;;;;;5092353;28;19920;-76
2022/02/09 23:12:21;;;;;;;;;;;;;;;;;;5092634;28;20011;-76
2022/02/09 23:52:42;;;;;;;;;;;;;;;;;;4994810;28;19944;-76
2022/02/09 23:56:55;;;;;;;;;;;;;;;;;;5097249;28;19923;-76
